Time;durP1;ratioP1;P1;durP2;ratioP2;P2;SDS_P1;SDS_P2;PMS_P1;PMS_P2;Temp;Humidity;BMP_temperature;BMP_pressure;BME280_temperature;BME280_humidity;BME280_pressure;Samples;Min_cycle;Max_cycle;Signal;HPM_P1;HPM_P2
2022/01/20 00:03:21;;;;;;;;;;;;;;;-4.83;69.25;100648.34;5011244;28;1377;-56
2022/01/20 00:08:50;;;;;;;;;;;;;;;-5.10;69.49;100641.44;5012472;28;781;-55
2022/01/20 00:27:55;;;;;;;;;;;;;;;-4.53;67.65;100621.16;5014722;28;1890;-56
2022/01/20 00:30:39;;;;;;;;;;;;;;;-4.50;67.44;100622.50;5014562;28;959;-57
2022/01/20 00:38:20;;;;;;;;;;;;;;;-4.62;67.85;100614.75;5014751;28;636;-56
2022/01/20 00:40:46;;;;;;;;;;;;;;;-4.73;67.68;100622.09;5014414;28;860;-56
2022/01/20 00:43:13;;;;;;;;;;;;;;;-5.02;68.01;100615.81;5014242;28;952;-56
2022/01/20 00:45:39;;;;;;;;;;;;;;;-5.24;68.63;100602.72;5014231;28;908;-56
2022/01/20 00:48:06;;;;;;;;;;;;;;;-5.37;68.97;100612.22;5014289;28;1894;-57
2022/01/20 00:50:34;;;;;;;;;;;;;;;-5.58;69.76;100612.28;5014213;28;1034;-57
2022/01/20 00:53:02;;;;;;;;;;;;;;;-5.76;70.12;100616.41;5013967;28;922;-57
2022/01/20 00:55:28;;;;;;;;;;;;;;;-5.88;70.43;100610.50;5014160;28;920;-57
2022/01/20 00:57:55;;;;;;;;;;;;;;;-5.81;70.78;100594.84;5014176;28;895;-57
2022/01/20 01:00:21;;;;;;;;;;;;;;;-5.52;70.61;100590.72;5014076;28;907;-57
2022/01/20 01:02:48;;;;;;;;;;;;;;;-5.58;69.96;100582.66;5013824;28;1372;-57
2022/01/20 01:05:14;;;;;;;;;;;;;;;-5.58;70.48;100582.66;5014042;28;828;-57
2022/01/20 01:10:09;;;;;;;;;;;;;;;-5.46;70.91;100579.66;5014152;28;774;-56
2022/01/20 01:12:47;;;;;;;;;;;;;;;-5.46;71.21;100576.13;5013696;28;989;-57
2022/01/20 01:15:28;;;;;;;;;;;;;;;-5.46;71.39;100571.56;5013772;28;911;-56
2022/01/20 01:23:27;;;;;;;;;;;;;;;-5.49;71.29;100553.25;5013995;28;1136;-57
2022/01/20 01:25:56;;;;;;;;;;;;;;;-5.37;71.04;100552.94;5013501;28;1890;-57
2022/01/20 01:28:25;;;;;;;;;;;;;;;-5.28;71.63;100542.38;5013545;28;844;-57
2022/01/20 01:33:40;;;;;;;;;;;;;;;-5.22;71.83;100531.28;5013451;28;631;-57
2022/01/20 01:36:08;;;;;;;;;;;;;;;-5.27;71.69;100527.81;5013672;28;1069;-57
2022/01/20 01:38:38;;;;;;;;;;;;;;;-5.33;72.14;100518.97;5013480;28;916;-57
2022/01/20 01:41:11;;;;;;;;;;;;;;;-5.25;72.29;100523.78;5013312;28;857;-57
2022/01/20 01:43:40;;;;;;;;;;;;;;;-5.35;72.37;100504.97;5013193;28;916;-57
2022/01/20 01:46:07;;;;;;;;;;;;;;;-5.46;72.76;100504.22;5013075;28;1934;-57
2022/01/20 01:48:34;;;;;;;;;;;;;;;-5.60;73.34;100506.69;5013057;28;864;-57
2022/01/20 01:51:00;;;;;;;;;;;;;;;-5.61;73.42;100510.50;5013197;28;841;-57
2022/01/20 01:53:27;;;;;;;;;;;;;;;-5.57;74.02;100500.78;5012869;28;873;-57
2022/01/20 01:55:54;;;;;;;;;;;;;;;-5.50;73.72;100496.94;5012944;28;879;-57
2022/01/20 01:58:19;;;;;;;;;;;;;;;-5.48;73.81;100500.16;5012953;28;833;-57
2022/01/20 02:00:46;;;;;;;;;;;;;;;-5.53;73.61;100490.22;5012945;28;833;-57
2022/01/20 02:03:15;;;;;;;;;;;;;;;-5.47;73.60;100485.63;5012872;28;1388;-57
2022/01/20 02:08:51;;;;;;;;;;;;;;;-5.61;73.66;100475.47;4989809;28;1212;-57
2022/01/20 02:19:32;;;;;;;;;;;;;;;-6.16;74.59;100463.91;5012595;28;624;-57
2022/01/20 02:22:02;;;;;;;;;;;;;;;-6.19;74.88;100462.56;5012474;28;841;-57
2022/01/20 02:24:29;;;;;;;;;;;;;;;-6.16;75.18;100461.22;5012577;28;884;-57
2022/01/20 02:26:56;;;;;;;;;;;;;;;-6.01;75.12;100454.97;5012349;28;1890;-57
2022/01/20 02:29:22;;;;;;;;;;;;;;;-5.89;75.00;100449.22;5012290;28;912;-57
2022/01/20 02:31:52;;;;;;;;;;;;;;;-5.84;74.95;100450.00;5011487;28;828;-57
2022/01/20 02:34:20;;;;;;;;;;;;;;;-5.81;75.19;100445.94;5012707;28;1069;-57
2022/01/20 02:36:47;;;;;;;;;;;;;;;-5.90;75.36;100439.53;5012494;28;928;-57
2022/01/20 02:40:15;;;;;;;;;;;;;;;-5.99;75.79;100448.22;4995081;28;1156;-57
2022/01/20 02:44:52;;;;;;;;;;;;;;;-6.12;75.41;100451.50;5012145;28;631;-57
2022/01/20 02:47:24;;;;;;;;;;;;;;;-6.22;75.78;100443.47;5012012;28;1960;-57
2022/01/20 02:49:51;;;;;;;;;;;;;;;-6.09;75.91;100436.69;5012337;28;875;-57
2022/01/20 02:52:17;;;;;;;;;;;;;;;-5.98;76.53;100427.50;5012229;28;824;-57
2022/01/20 02:54:44;;;;;;;;;;;;;;;-5.89;76.29;100430.38;5011924;28;980;-57
2022/01/20 02:57:11;;;;;;;;;;;;;;;-5.84;75.64;100425.78;5012004;28;841;-57
2022/01/20 02:59:38;;;;;;;;;;;;;;;-5.87;75.58;100429.00;5011864;28;845;-57
2022/01/20 03:02:05;;;;;;;;;;;;;;;-5.91;76.03;100421.75;5011862;28;803;-57
2022/01/20 03:04:32;;;;;;;;;;;;;;;-6.02;75.88;100424.53;4994137;28;1584;-57
2022/01/20 03:06:59;;;;;;;;;;;;;;;-6.14;76.01;100420.56;5012077;28;1903;-57
2022/01/20 03:09:26;;;;;;;;;;;;;;;-6.30;76.14;100411.75;5011790;28;817;-57
2022/01/20 03:11:52;;;;;;;;;;;;;;;-6.41;76.16;100410.97;5011810;28;892;-57
2022/01/20 03:14:19;;;;;;;;;;;;;;;-6.54;75.92;100408.88;5011789;28;824;-57
2022/01/20 03:16:46;;;;;;;;;;;;;;;-6.70;76.16;100414.31;5011794;28;1007;-57
2022/01/20 03:19:13;;;;;;;;;;;;;;;-6.84;76.81;100413.25;5012020;28;849;-57
2022/01/20 03:21:39;;;;;;;;;;;;;;;-6.83;76.88;100406.78;5011616;28;896;-57
2022/01/20 03:24:06;;;;;;;;;;;;;;;-6.77;77.02;100406.50;5011672;28;848;-57
2022/01/20 03:26:33;;;;;;;;;;;;;;;-6.65;77.49;100410.78;5011741;28;1879;-57
2022/01/20 03:28:59;;;;;;;;;;;;;;;-6.55;77.13;100405.38;5011590;28;1022;-57
2022/01/20 03:31:26;;;;;;;;;;;;;;;-6.46;77.00;100402.94;4994139;28;885;-57
2022/01/20 03:33:52;;;;;;;;;;;;;;;-6.40;77.49;100402.66;5011500;28;1005;-58
2022/01/20 03:36:20;;;;;;;;;;;;;;;-6.39;77.44;100406.13;5011489;28;885;-57
2022/01/20 03:38:46;;;;;;;;;;;;;;;-6.37;77.03;100399.41;5011551;28;908;-57
2022/01/20 03:41:13;;;;;;;;;;;;;;;-6.39;76.66;100403.44;5011492;28;868;-57
2022/01/20 03:43:39;;;;;;;;;;;;;;;-6.40;76.59;100399.97;5012739;28;1061;-57
2022/01/20 03:46:12;;;;;;;;;;;;;;;-6.33;76.85;100396.16;5015272;28;1949;-57
2022/01/20 03:48:49;;;;;;;;;;;;;;;-6.37;77.03;100385.94;5015688;28;908;-57
2022/01/20 03:51:20;;;;;;;;;;;;;;;-6.42;77.75;100391.34;5015279;28;868;-57
2022/01/20 03:53:48;;;;;;;;;;;;;;;-6.42;77.09;100393.22;4997824;28;853;-57
2022/01/20 03:56:15;;;;;;;;;;;;;;;-6.35;77.22;100391.06;5015199;28;925;-57
2022/01/20 03:58:42;;;;;;;;;;;;;;;-6.35;77.14;100380.31;5015215;28;817;-57
2022/01/20 04:01:08;;;;;;;;;;;;;;;-6.34;77.12;100378.41;5015167;28;1060;-57
2022/01/20 04:03:34;;;;;;;;;;;;;;;-6.35;76.80;100379.50;5014931;28;1656;-57
2022/01/20 04:06:01;;;;;;;;;;;;;;;-6.38;77.36;100392.41;5015038;28;1977;-57
2022/01/20 04:08:32;;;;;;;;;;;;;;;-6.42;77.57;100388.66;5014995;28;867;-57
2022/01/20 04:11:19;;;;;;;;;;;;;;;-6.45;77.55;100391.88;4997361;28;1365;-58
2022/01/20 04:13:45;;;;;;;;;;;;;;;-6.47;77.60;100385.19;5014694;28;1244;-57
2022/01/20 04:16:24;;;;;;;;;;;;;;;-6.49;77.50;100387.34;5014870;28;899;-58
2022/01/20 04:18:56;;;;;;;;;;;;;;;-6.55;77.44;100391.91;5014802;28;837;-57
2022/01/20 04:21:24;;;;;;;;;;;;;;;-6.54;77.78;100385.47;5014745;28;865;-58
2022/01/20 04:23:50;;;;;;;;;;;;;;;-6.54;77.88;100384.69;5014932;28;849;-57
2022/01/20 04:26:17;;;;;;;;;;;;;;;-6.55;78.28;100374.97;5014576;28;1955;-57
2022/01/20 04:28:45;;;;;;;;;;;;;;;-6.53;77.95;100380.91;5014605;28;915;-57
2022/01/20 04:31:12;;;;;;;;;;;;;;;-6.52;77.81;100375.25;5014531;28;908;-57
2022/01/20 04:33:38;;;;;;;;;;;;;;;-6.52;78.33;100386.00;5014531;28;884;-57
2022/01/20 04:36:06;;;;;;;;;;;;;;;-6.57;77.90;100375.28;4997316;28;969;-58
2022/01/20 04:38:33;;;;;;;;;;;;;;;-6.54;78.51;100385.47;5014434;28;848;-58
2022/01/20 04:40:59;;;;;;;;;;;;;;;-6.46;78.03;100370.66;5014402;28;912;-58
2022/01/20 04:43:27;;;;;;;;;;;;;;;-6.36;78.31;100373.28;5014331;28;916;-57
2022/01/20 04:46:03;;;;;;;;;;;;;;;-6.25;78.41;100371.34;5014361;28;891;-58
2022/01/20 04:57:02;;;;;;;;;;;;;;;-6.14;78.38;100372.13;4996904;28;888;-57
2022/01/20 04:57:05;;;;;;;;;;;;;;;-6.20;77.46;100376.72;5014508;28;695;-58
2022/01/20 04:59:29;;;;;;;;;;;;;;;-6.47;77.85;100364.47;5014048;28;807;-58
2022/01/20 05:01:55;;;;;;;;;;;;;;;-6.64;77.69;100364.78;5014115;28;900;-58
2022/01/20 05:04:24;;;;;;;;;;;;;;;-6.71;78.11;100358.09;4996209;28;1374;-58
2022/01/20 05:06:53;;;;;;;;;;;;;;;-6.80;78.39;100361.34;5013946;28;1977;-58
2022/01/20 05:09:21;;;;;;;;;;;;;;;-6.68;78.69;100357.53;5014053;28;959;-58
2022/01/20 05:11:57;;;;;;;;;;;;;;;-6.73;78.67;100360.25;5013924;28;923;-58
2022/01/20 05:14:23;;;;;;;;;;;;;;;-6.81;78.70;100357.03;5013770;28;856;-58
2022/01/20 05:16:51;;;;;;;;;;;;;;;-6.81;79.39;100367.00;5014066;28;845;-58
2022/01/20 05:19:17;;;;;;;;;;;;;;;-6.91;79.69;100359.78;5013663;28;892;-58
2022/01/20 05:21:44;;;;;;;;;;;;;;;-6.71;79.32;100368.88;5013633;28;868;-57
2022/01/20 05:24:10;;;;;;;;;;;;;;;-6.69;79.43;100367.50;5013607;28;873;-58
2022/01/20 05:26:36;;;;;;;;;;;;;;;-6.62;78.84;100364.53;5013463;28;1993;-57
2022/01/20 05:29:02;;;;;;;;;;;;;;;-6.63;79.33;100360.25;5013524;28;821;-58
2022/01/20 05:31:29;;;;;;;;;;;;;;;-6.69;79.26;100350.56;5013505;28;891;-58
2022/01/20 05:33:55;;;;;;;;;;;;;;;-6.72;79.43;100356.47;5013350;28;1033;-58
2022/01/20 05:36:22;;;;;;;;;;;;;;;-6.67;80.06;100353.78;5013398;28;979;-58
2022/01/20 05:38:49;;;;;;;;;;;;;;;-6.67;79.50;100357.28;5013354;28;833;-58
2022/01/20 05:41:15;;;;;;;;;;;;;;;-6.57;79.29;100354.56;5013245;28;851;-58
2022/01/20 05:43:42;;;;;;;;;;;;;;;-6.51;79.50;100347.25;5013252;28;830;-58
2022/01/20 05:46:09;;;;;;;;;;;;;;;-6.57;79.01;100356.44;5013071;28;1953;-58
2022/01/20 05:48:36;;;;;;;;;;;;;;;-6.63;79.18;100352.16;4995540;28;939;-58
2022/01/20 05:51:03;;;;;;;;;;;;;;;-6.68;79.89;100344.91;5013077;28;958;-58
2022/01/20 05:53:30;;;;;;;;;;;;;;;-6.68;79.62;100342.22;4995304;28;1003;-58
2022/01/20 05:55:57;;;;;;;;;;;;;;;-6.55;80.23;100343.50;5013129;28;831;-58
2022/01/20 05:58:23;;;;;;;;;;;;;;;-6.38;79.63;100344.00;5012952;28;922;-57
2022/01/20 06:00:50;;;;;;;;;;;;;;;-6.25;79.97;100344.44;4995214;28;1280;-58
2022/01/20 06:06:02;;;;;;;;;;;;;;;-5.82;79.26;100347.41;5012694;28;1970;-57
2022/01/20 06:08:29;;;;;;;;;;;;;;;-5.43;78.61;100331.22;5012844;28;824;-56
2022/01/20 06:10:56;;;;;;;;;;;;;;;-5.10;77.31;100331.44;5012727;28;891;-56
2022/01/20 06:13:23;;;;;;;;;;;;;;;-4.77;76.46;100334.34;5012765;28;844;-56
2022/01/20 06:15:49;;;;;;;;;;;;;;;-4.43;75.08;100336.13;5012632;28;892;-56
2022/01/20 06:18:17;;;;;;;;;;;;;;;-4.14;74.32;100346.78;5012568;28;856;-57
2022/01/20 06:20:44;;;;;;;;;;;;;;;-4.09;73.46;100352.13;5012628;28;824;-56
2022/01/20 06:23:10;;;;;;;;;;;;;;;-4.13;73.43;100351.91;5012562;28;828;-56
2022/01/20 06:25:37;;;;;;;;;;;;;;;-3.99;72.85;100359.28;5012585;28;923;-57
2022/01/20 06:28:04;;;;;;;;;;;;;;;-3.71;72.13;100354.84;5012370;28;1882;-57
2022/01/20 06:30:32;;;;;;;;;;;;;;;-3.49;71.27;100348.81;5012607;28;864;-57
2022/01/20 06:32:58;;;;;;;;;;;;;;;-3.26;70.36;100348.97;5012236;28;939;-56
2022/01/20 06:35:25;;;;;;;;;;;;;;;-3.20;69.77;100340.50;5012671;28;973;-56
2022/01/20 06:37:52;;;;;;;;;;;;;;;-3.11;69.48;100340.63;5012335;28;817;-56
2022/01/20 06:40:18;;;;;;;;;;;;;;;-3.04;69.15;100343.72;5012238;28;817;-56
2022/01/20 06:42:44;;;;;;;;;;;;;;;-2.73;68.80;100340.44;5012185;28;860;-56
2022/01/20 06:45:12;;;;;;;;;;;;;;;-2.67;68.26;100339.25;5012193;28;821;-56
2022/01/20 06:47:39;;;;;;;;;;;;;;;-2.46;67.10;100337.72;5012007;28;1882;-56
2022/01/20 06:50:08;;;;;;;;;;;;;;;-2.20;66.54;100337.19;5012161;28;813;-56
2022/01/20 06:52:34;;;;;;;;;;;;;;;-1.95;66.00;100329.63;5012024;28;893;-56
2022/01/20 06:55:08;;;;;;;;;;;;;;;-1.88;66.10;100330.81;5011960;28;882;-56
2022/01/20 06:57:35;;;;;;;;;;;;;;;-1.65;65.98;100334.34;5011989;28;1016;-56
2022/01/20 07:00:00;;;;;;;;;;;;;;;-1.51;64.69;100336.22;5011991;28;848;-56
2022/01/20 07:02:28;;;;;;;;;;;;;;;-1.42;64.60;100338.97;4994151;28;1491;-56
2022/01/20 07:04:54;;;;;;;;;;;;;;;-1.16;64.61;100334.50;5011907;28;821;-56
2022/01/20 07:07:21;;;;;;;;;;;;;;;-0.68;63.73;100341.13;5011816;28;1911;-56
2022/01/20 07:09:47;;;;;;;;;;;;;;;-0.45;62.97;100344.53;5011850;28;856;-56
2022/01/20 07:12:14;;;;;;;;;;;;;;;-0.34;62.59;100340.44;5011756;28;809;-56
2022/01/20 07:14:41;;;;;;;;;;;;;;;-0.23;62.35;100343.66;5011736;28;931;-56
2022/01/20 07:17:07;;;;;;;;;;;;;;;-0.19;62.06;100341.91;5011664;28;892;-56
2022/01/20 07:19:34;;;;;;;;;;;;;;;-0.11;61.37;100338.38;4993730;28;872;-56
2022/01/20 07:22:01;;;;;;;;;;;;;;;-0.04;61.83;100327.06;5011668;28;900;-56
2022/01/20 07:24:29;;;;;;;;;;;;;;;0.18;61.38;100323.38;5011732;28;812;-56
2022/01/20 07:26:57;;;;;;;;;;;;;;;0.21;61.04;100320.03;5011509;28;1881;-56
2022/01/20 07:29:24;;;;;;;;;;;;;;;0.12;61.76;100313.78;5011640;28;979;-56
2022/01/20 07:31:51;;;;;;;;;;;;;;;0.06;60.90;100318.56;5011624;28;937;-56
2022/01/20 07:34:18;;;;;;;;;;;;;;;-0.03;60.36;100304.19;5011593;28;943;-56
2022/01/20 07:36:44;;;;;;;;;;;;;;;-0.02;61.43;100308.53;5011482;28;923;-56
2022/01/20 07:39:11;;;;;;;;;;;;;;;0.09;60.28;100298.94;5011517;28;880;-56
2022/01/20 07:41:36;;;;;;;;;;;;;;;0.20;60.35;100300.19;5011507;28;923;-55
2022/01/20 07:44:03;;;;;;;;;;;;;;;0.45;60.41;100302.41;5011786;28;797;-56
2022/01/20 07:46:30;;;;;;;;;;;;;;;0.62;59.92;100302.41;5011313;28;1886;-56
2022/01/20 07:48:57;;;;;;;;;;;;;;;0.55;60.00;100299.34;5011412;28;939;-57
2022/01/20 07:51:23;;;;;;;;;;;;;;;0.69;59.87;100308.13;5011501;28;892;-55
2022/01/20 07:53:50;;;;;;;;;;;;;;;0.87;60.88;100308.88;5011622;28;892;-57
2022/01/20 07:56:16;;;;;;;;;;;;;;;1.05;59.27;100309.63;5011338;28;1041;-57
2022/01/20 07:58:43;;;;;;;;;;;;;;;0.99;60.36;100314.47;5011384;28;848;-57
2022/01/20 08:01:09;;;;;;;;;;;;;;;0.87;58.14;100317.03;5011395;28;840;-58
2022/01/20 08:03:36;;;;;;;;;;;;;;;0.80;58.86;100305.88;5011325;28;1298;-58
2022/01/20 08:06:03;;;;;;;;;;;;;;;0.77;59.13;100309.25;5011211;28;857;-58
2022/01/20 08:08:29;;;;;;;;;;;;;;;1.00;59.42;100307.91;5011290;28;1961;-58
2022/01/20 08:10:56;;;;;;;;;;;;;;;1.25;57.40;100308.09;5011222;28;879;-57
2022/01/20 08:13:22;;;;;;;;;;;;;;;1.32;57.20;100302.16;5011323;28;848;-57
2022/01/20 08:15:49;;;;;;;;;;;;;;;1.42;58.66;100297.13;5011120;28;825;-57
2022/01/20 08:18:15;;;;;;;;;;;;;;;1.36;55.83;100289.47;5011234;28;864;-57
2022/01/20 08:20:42;;;;;;;;;;;;;;;1.16;57.64;100291.03;5011175;28;824;-55
2022/01/20 08:23:08;;;;;;;;;;;;;;;1.39;57.01;100281.44;5011470;28;1042;-57
2022/01/20 08:25:35;;;;;;;;;;;;;;;1.47;56.47;100274.34;5011095;28;825;-55
2022/01/20 08:28:01;;;;;;;;;;;;;;;1.49;56.12;100277.53;5010936;28;1882;-58
2022/01/20 08:30:28;;;;;;;;;;;;;;;1.55;55.48;100286.31;5012084;28;849;-55
2022/01/20 08:32:54;;;;;;;;;;;;;;;1.55;56.16;100289.06;5014626;28;876;-55
2022/01/20 08:35:22;;;;;;;;;;;;;;;1.56;56.88;100291.47;5014818;28;930;-56
2022/01/20 08:37:49;;;;;;;;;;;;;;;1.75;55.98;100291.03;5014578;28;848;-56
2022/01/20 08:40:18;;;;;;;;;;;;;;;1.79;57.00;100291.13;5014312;28;963;-56
2022/01/20 08:42:46;;;;;;;;;;;;;;;1.77;56.09;100291.50;5014621;28;900;-56
2022/01/20 08:45:14;;;;;;;;;;;;;;;1.71;56.12;100292.81;5014294;28;903;-56
2022/01/20 08:47:42;;;;;;;;;;;;;;;1.81;55.37;100295.16;5014165;28;1952;-55
2022/01/20 08:50:11;;;;;;;;;;;;;;;1.83;56.95;100290.16;5014207;28;865;-56
2022/01/20 08:52:37;;;;;;;;;;;;;;;1.81;55.84;100289.69;5014283;28;813;-56
2022/01/20 08:55:05;;;;;;;;;;;;;;;1.87;56.99;100287.56;5014394;28;896;-56
2022/01/20 08:57:31;;;;;;;;;;;;;;;1.84;54.98;100285.50;5014082;28;873;-57
2022/01/20 08:59:58;;;;;;;;;;;;;;;1.77;56.59;100280.59;5014122;28;821;-57
2022/01/20 09:02:25;;;;;;;;;;;;;;;1.72;56.56;100291.66;5013870;28;1246;-57
2022/01/20 09:04:51;;;;;;;;;;;;;;;1.76;56.90;100276.25;5014077;28;837;-58
2022/01/20 09:07:18;;;;;;;;;;;;;;;1.85;56.37;100281.63;5013771;28;1906;-58
2022/01/20 09:09:47;;;;;;;;;;;;;;;1.87;56.29;100273.13;5013934;28;824;-58
2022/01/20 09:15:27;;;;;;;;;;;;;;;2.08;55.51;100262.22;5013847;28;959;-57
2022/01/20 09:17:52;;;;;;;;;;;;;;;2.18;54.26;100254.44;5014123;28;695;-57
2022/01/20 09:20:18;;;;;;;;;;;;;;;2.31;54.88;100254.50;5013720;28;916;-57
2022/01/20 09:22:45;;;;;;;;;;;;;;;2.32;54.30;100256.06;5013628;28;920;-57
2022/01/20 09:25:11;;;;;;;;;;;;;;;2.36;54.03;100249.59;4996188;28;829;-57
2022/01/20 09:27:37;;;;;;;;;;;;;;;2.37;54.08;100253.13;5013504;28;1886;-57
2022/01/20 09:30:04;;;;;;;;;;;;;;;2.52;55.84;100244.31;5013625;28;864;-57
2022/01/20 09:32:34;;;;;;;;;;;;;;;2.61;55.31;100249.69;4995967;28;862;-57
2022/01/20 09:35:01;;;;;;;;;;;;;;;2.81;53.24;100215.25;5013380;28;1010;-54
2022/01/20 09:37:27;;;;;;;;;;;;;;;2.83;53.61;100243.78;5013513;28;852;-57
2022/01/20 09:39:55;;;;;;;;;;;;;;;3.00;54.16;100225.59;4996096;28;1044;-57
2022/01/20 09:42:21;;;;;;;;;;;;;;;3.23;53.19;100225.97;5012840;28;916;-57
2022/01/20 09:44:47;;;;;;;;;;;;;;;3.41;53.03;100218.28;5013232;28;879;-58
2022/01/20 09:47:16;;;;;;;;;;;;;;;3.34;51.87;100213.41;5013074;28;1890;-57
2022/01/20 09:49:43;;;;;;;;;;;;;;;3.26;52.25;100206.13;5013067;28;860;-58
2022/01/20 09:52:09;;;;;;;;;;;;;;;3.27;53.10;100197.59;5013083;28;1021;-58
2022/01/20 09:54:37;;;;;;;;;;;;;;;3.50;53.04;100199.84;5013046;28;820;-58
2022/01/20 09:57:03;;;;;;;;;;;;;;;3.46;51.99;100196.22;5013097;28;804;-57
2022/01/20 09:59:30;;;;;;;;;;;;;;;3.38;52.31;100181.53;5012994;28;817;-58
2022/01/20 10:01:58;;;;;;;;;;;;;;;3.50;52.87;100185.38;5012930;28;817;-58
2022/01/20 10:04:37;;;;;;;;;;;;;;;3.61;52.83;100175.56;5012782;28;1497;-57
2022/01/20 10:07:06;;;;;;;;;;;;;;;3.87;52.67;100166.94;5012909;28;1914;-58
2022/01/20 10:09:35;;;;;;;;;;;;;;;3.97;51.25;100177.38;5012835;28;860;-57
2022/01/20 10:12:03;;;;;;;;;;;;;;;3.85;52.06;100152.81;5012584;28;966;-58
2022/01/20 10:14:59;;;;;;;;;;;;;;;4.01;52.71;100145.44;5012710;28;813;-57
2022/01/20 10:17:29;;;;;;;;;;;;;;;4.30;51.43;100155.19;4996371;28;1274;-57
2022/01/20 10:19:58;;;;;;;;;;;;;;;4.48;50.35;100144.72;5012593;28;934;-57
2022/01/20 10:22:25;;;;;;;;;;;;;;;4.52;49.74;100141.25;5012824;28;891;-58
2022/01/20 10:25:02;;;;;;;;;;;;;;;4.43;49.18;100139.47;5013144;28;840;-58
2022/01/20 10:27:33;;;;;;;;;;;;;;;4.62;48.16;100140.72;5012471;28;1957;-57
2022/01/20 10:30:08;;;;;;;;;;;;;;;4.80;46.03;100119.22;5012707;28;872;-57
2022/01/20 10:32:50;;;;;;;;;;;;;;;4.73;45.47;100130.81;4995078;28;1117;-58
2022/01/20 10:35:31;;;;;;;;;;;;;;;4.78;46.19;100122.34;5012682;28;1078;-58
2022/01/20 10:38:01;;;;;;;;;;;;;;;4.83;45.16;100113.06;5012377;28;848;-57
2022/01/20 10:40:28;;;;;;;;;;;;;;;4.93;46.02;100115.25;5012267;28;833;-58
2022/01/20 10:42:54;;;;;;;;;;;;;;;5.06;45.51;100115.94;5012369;28;840;-58
2022/01/20 10:45:28;;;;;;;;;;;;;;;4.97;44.92;100101.63;5012113;28;885;-57
2022/01/20 10:47:59;;;;;;;;;;;;;;;4.94;45.72;100103.13;5012114;28;1886;-58
2022/01/20 10:50:30;;;;;;;;;;;;;;;5.08;45.08;100086.22;5012240;28;845;-58
2022/01/20 10:52:56;;;;;;;;;;;;;;;5.03;44.38;100087.28;5011461;28;825;-57
2022/01/20 10:55:30;;;;;;;;;;;;;;;4.91;45.66;100092.91;5012003;28;970;-58
2022/01/20 10:58:09;;;;;;;;;;;;;;;5.04;45.00;100082.63;5012079;28;832;-58
2022/01/20 11:00:40;;;;;;;;;;;;;;;5.24;44.76;100070.50;5012037;28;821;-58
2022/01/20 11:03:07;;;;;;;;;;;;;;;5.36;44.42;100071.53;5011836;28;1425;-57
2022/01/20 11:05:33;;;;;;;;;;;;;;;5.36;44.67;100072.34;5011827;28;959;-58
2022/01/20 11:08:00;;;;;;;;;;;;;;;5.39;45.03;100065.34;5011670;28;1906;-58
2022/01/20 11:10:26;;;;;;;;;;;;;;;5.63;42.63;100072.44;5011795;28;907;-58
2022/01/20 11:12:53;;;;;;;;;;;;;;;5.72;43.84;100075.78;5011585;28;911;-58
2022/01/20 11:15:20;;;;;;;;;;;;;;;5.61;42.47;100064.59;5011689;28;920;-58
2022/01/20 11:17:53;;;;;;;;;;;;;;;5.64;43.73;100060.34;5011710;28;896;-58
2022/01/20 11:20:22;;;;;;;;;;;;;;;5.74;44.04;100059.75;5011679;28;924;-58
2022/01/20 11:22:51;;;;;;;;;;;;;;;5.84;43.75;100061.09;5011568;28;920;-58
2022/01/20 11:25:21;;;;;;;;;;;;;;;5.79;45.06;100048.47;5011754;28;860;-58
2022/01/20 11:27:50;;;;;;;;;;;;;;;6.00;44.16;100050.84;5011477;28;1953;-58
2022/01/20 11:30:21;;;;;;;;;;;;;;;6.01;43.40;100046.16;5011692;28;904;-58
2022/01/20 11:32:58;;;;;;;;;;;;;;;5.83;43.97;100048.56;5011613;28;997;-58
2022/01/20 11:35:45;;;;;;;;;;;;;;;5.92;44.41;100036.16;5011755;28;1061;-58
2022/01/20 11:38:14;;;;;;;;;;;;;;;6.05;44.11;100019.56;4992897;28;1815;-58
2022/01/20 11:41:03;;;;;;;;;;;;;;;6.11;44.11;100018.09;5011518;28;891;-58
2022/01/20 11:43:35;;;;;;;;;;;;;;;6.30;42.69;100020.75;5011288;28;947;-58
2022/01/20 11:46:13;;;;;;;;;;;;;;;6.28;42.85;100019.53;5011461;28;899;-58
2022/01/20 11:48:50;;;;;;;;;;;;;;;6.39;43.51;100016.97;5011689;28;876;-58
2022/01/20 11:51:19;;;;;;;;;;;;;;;6.56;42.90;100010.94;5011424;28;829;-59
2022/01/20 11:54:02;;;;;;;;;;;;;;;6.51;41.90;100005.78;5011715;28;1058;-59
2022/01/20 11:56:30;;;;;;;;;;;;;;;6.37;42.54;100005.56;4993958;28;868;-59
2022/01/20 11:58:56;;;;;;;;;;;;;;;6.43;43.23;100004.09;5011295;28;837;-59
2022/01/20 12:01:39;;;;;;;;;;;;;;;6.83;41.39;99988.94;5011309;28;918;-59
2022/01/20 12:04:05;;;;;;;;;;;;;;;6.66;41.26;99998.53;5011639;28;1436;-59
2022/01/20 12:06:43;;;;;;;;;;;;;;;6.74;40.83;99980.97;5015077;28;1914;-58
2022/01/20 12:09:12;;;;;;;;;;;;;;;6.81;40.82;99983.03;5015285;28;955;-59
2022/01/20 12:11:45;;;;;;;;;;;;;;;6.90;41.36;99983.56;5015090;28;917;-58
2022/01/20 12:14:13;;;;;;;;;;;;;;;7.07;40.47;99984.94;5015025;28;884;-59
2022/01/20 12:16:42;;;;;;;;;;;;;;;7.14;39.70;99985.00;5014864;28;865;-59
2022/01/20 12:19:10;;;;;;;;;;;;;;;7.32;39.76;99988.78;5014968;28;840;-59
2022/01/20 12:21:38;;;;;;;;;;;;;;;7.49;39.42;99970.06;5014886;28;813;-58
2022/01/20 12:24:05;;;;;;;;;;;;;;;7.30;38.44;99977.34;5014856;28;825;-59
2022/01/20 12:26:38;;;;;;;;;;;;;;;7.25;38.97;99976.88;5014724;28;1977;-57
2022/01/20 12:29:07;;;;;;;;;;;;;;;7.35;39.39;99981.72;4997136;28;1169;-59
2022/01/20 12:31:56;;;;;;;;;;;;;;;7.49;39.39;99989.31;5015078;28;801;-59
2022/01/20 12:34:23;;;;;;;;;;;;;;;7.51;38.29;99976.78;5014836;28;951;-59
2022/01/20 12:36:53;;;;;;;;;;;;;;;7.47;37.79;99975.97;5014911;28;919;-58
2022/01/20 12:39:38;;;;;;;;;;;;;;;7.46;37.76;99974.38;5014516;28;858;-59
2022/01/20 12:42:08;;;;;;;;;;;;;;;7.23;38.55;99976.47;5014677;28;805;-58
2022/01/20 12:45:05;;;;;;;;;;;;;;;7.26;39.11;99975.75;4996830;28;1682;-59
2022/01/20 12:47:32;;;;;;;;;;;;;;;7.38;37.66;99980.97;5014350;28;1954;-58
2022/01/20 12:50:00;;;;;;;;;;;;;;;7.41;38.46;99976.69;5014428;28;817;-57
2022/01/20 12:52:27;;;;;;;;;;;;;;;7.57;38.26;99958.78;5014261;28;856;-57
2022/01/20 13:07:24;;;;;;;;;;;;;;;7.26;37.72;99949.03;5013914;28;2213;-59
2022/01/20 13:10:02;;;;;;;;;;;;;;;7.32;37.82;99947.53;5013865;28;857;-57
2022/01/20 13:12:42;;;;;;;;;;;;;;;7.41;37.25;99946.44;5013878;28;1123;-59
2022/01/20 13:15:17;;;;;;;;;;;;;;;7.21;37.62;99962.31;5013865;28;860;-58
2022/01/20 13:17:47;;;;;;;;;;;;;;;7.14;37.62;99952.03;5013137;28;957;-58
2022/01/20 13:20:19;;;;;;;;;;;;;;;7.23;37.98;99955.25;5014064;28;903;-59
2022/01/20 13:22:56;;;;;;;;;;;;;;;7.19;38.27;99942.66;5013700;28;951;-59
2022/01/20 13:25:31;;;;;;;;;;;;;;;7.42;38.69;99953.50;5013600;28;861;-59
2022/01/20 13:27:59;;;;;;;;;;;;;;;7.55;38.15;99946.56;5013513;28;1906;-59
2022/01/20 13:30:36;;;;;;;;;;;;;;;7.45;38.42;99956.31;5013920;28;895;-58
2022/01/20 13:33:03;;;;;;;;;;;;;;;7.39;38.14;99948.78;5013783;28;861;-58
2022/01/20 13:35:40;;;;;;;;;;;;;;;7.31;37.99;99948.69;5013826;28;1014;-59
2022/01/20 13:38:08;;;;;;;;;;;;;;;7.12;37.31;99941.41;5013329;28;876;-59
2022/01/20 13:40:35;;;;;;;;;;;;;;;7.20;37.83;99950.53;5013200;28;911;-59
2022/01/20 13:45:41;;;;;;;;;;;;;;;7.36;38.64;99940.09;5013306;28;761;-58
2022/01/20 13:48:09;;;;;;;;;;;;;;;7.43;38.83;99955.88;5013117;28;1943;-59
2022/01/20 13:50:40;;;;;;;;;;;;;;;7.37;38.29;99951.88;5013304;28;840;-59
2022/01/20 13:53:14;;;;;;;;;;;;;;;7.28;38.22;99954.16;5013502;28;825;-58
2022/01/20 13:55:43;;;;;;;;;;;;;;;7.13;37.86;99947.72;5013110;28;882;-58
2022/01/20 13:58:30;;;;;;;;;;;;;;;7.08;38.12;99943.34;5012908;28;927;-59
2022/01/20 14:00:58;;;;;;;;;;;;;;;6.95;38.70;99937.28;5012824;28;1160;-59
2022/01/20 14:03:25;;;;;;;;;;;;;;;6.91;38.45;99932.91;5012907;28;1782;-58
2022/01/20 14:05:55;;;;;;;;;;;;;;;6.94;39.01;99929.44;5012787;28;1236;-59
2022/01/20 14:08:22;;;;;;;;;;;;;;;6.82;38.33;99924.97;5012691;28;1914;-59
2022/01/20 14:10:49;;;;;;;;;;;;;;;6.59;38.29;99921.53;5012719;28;1062;-59
2022/01/20 14:13:16;;;;;;;;;;;;;;;6.53;39.22;99916.38;5012745;28;853;-59
2022/01/20 14:15:42;;;;;;;;;;;;;;;6.50;38.57;99919.84;5012693;28;935;-58
2022/01/20 14:18:10;;;;;;;;;;;;;;;6.40;38.43;99914.22;5013007;28;876;-58
2022/01/20 14:20:37;;;;;;;;;;;;;;;6.32;39.09;99921.56;5012523;28;935;-58
2022/01/20 14:23:04;;;;;;;;;;;;;;;6.23;38.98;99918.28;5012651;28;825;-58
2022/01/20 14:25:32;;;;;;;;;;;;;;;6.16;38.33;99910.75;5012769;28;884;-58
2022/01/20 14:27:57;;;;;;;;;;;;;;;6.00;39.27;99905.41;5012393;28;1949;-58